Time;durP1;ratioP1;P1;durP2;ratioP2;P2;SDS_P1;SDS_P2;PMS_P1;PMS_P2;Temp;Humidity;BMP_temperature;BMP_pressure;BME280_temperature;BME280_humidity;BME280_pressure;Samples;Min_cycle;Max_cycle;Signal;HPM_P1;HPM_P2
2020/12/13 00:01:35;;;;;;;24.40;17.30;;;6.10;1.00;;;;;;5064856;28;20277;-59
2020/12/13 00:04:01;;;;;;;25.07;17.80;;;6.10;1.00;;;;;;5074433;28;20189;-60
2020/12/13 00:06:30;;;;;;;26.93;18.10;;;6.10;1.00;;;;;;5067462;28;20235;-60
2020/12/13 00:08:56;;;;;;;25.48;17.30;;;6.10;1.00;;;;;;5065203;28;20303;-60
2020/12/13 00:11:22;;;;;;;26.43;18.07;;;6.10;1.00;;;;;;5060832;28;20333;-60
2020/12/13 00:13:47;;;;;;;27.40;18.53;;;6.10;1.00;;;;;;5060097;28;20561;-60
2020/12/13 00:16:16;;;;;;;28.60;18.17;;;6.10;1.00;;;;;;5064339;28;20231;-62
2020/12/13 00:18:46;;;;;;;28.08;18.40;;;6.10;1.00;;;;;;5060522;28;20181;-59
2020/12/13 00:21:12;;;;;;;24.90;17.42;;;6.10;1.00;;;;;;5066306;28;20250;-60
2020/12/13 00:23:39;;;;;;;28.90;18.35;;;6.10;1.00;;;;;;5052060;28;20284;-59
2020/12/13 00:26:09;;;;;;;27.27;19.50;;;6.10;1.00;;;;;;5065460;28;20216;-59
2020/12/13 00:28:35;;;;;;;27.10;18.35;;;6.10;1.00;;;;;;5070096;28;20189;-59
2020/12/13 00:31:01;;;;;;;30.27;18.90;;;6.10;1.00;;;;;;5069971;28;20262;-60
2020/12/13 00:33:27;;;;;;;27.48;19.00;;;6.10;1.00;;;;;;5068366;28;20270;-60
2020/12/13 00:35:53;;;;;;;26.53;18.63;;;6.10;1.00;;;;;;5064237;28;20991;-60
2020/12/13 00:38:18;;;;;;;27.37;19.40;;;6.10;1.00;;;;;;5068795;28;20197;-59
2020/12/13 00:40:44;;;;;;;27.73;19.40;;;6.10;1.00;;;;;;5071179;28;20605;-60
2020/12/13 00:43:10;;;;;;;30.00;20.00;;;6.00;1.00;;;;;;5068569;28;20221;-60
2020/12/13 00:45:35;;;;;;;31.90;20.43;;;6.00;1.00;;;;;;5063741;28;20200;-60
2020/12/13 00:48:01;;;;;;;27.17;18.53;;;5.90;1.00;;;;;;5070458;28;20227;-60
2020/12/13 00:50:26;;;;;;;26.80;18.53;;;5.90;1.00;;;;;;5070576;28;20402;-60
2020/12/13 00:52:52;;;;;;;27.23;18.47;;;5.90;1.00;;;;;;5070432;28;20193;-59
2020/12/13 00:55:17;;;;;;;30.10;18.93;;;5.80;1.00;;;;;;5071071;28;20279;-61
2020/12/13 00:57:43;;;;;;;24.07;18.20;;;5.80;1.00;;;;;;5070374;28;20190;-61
2020/12/13 01:00:09;;;;;;;30.80;18.30;;;5.80;1.00;;;;;;5073507;28;20216;-60
2020/12/13 01:02:34;;;;;;;27.33;18.80;;;5.70;1.00;;;;;;5063079;28;20194;-60
2020/12/13 01:05:00;;;;;;;28.03;18.83;;;5.80;3.40;;;;;;5062309;28;20643;-60
2020/12/13 01:07:26;;;;;;;26.63;18.20;;;5.70;4.10;;;;;;5068796;28;20187;-60
2020/12/13 01:09:51;;;;;;;28.37;18.10;;;5.70;5.90;;;;;;5072878;28;20188;-60
2020/12/13 01:12:17;;;;;;;28.13;18.60;;;5.70;12.10;;;;;;5057313;28;20193;-59
2020/12/13 01:14:42;;;;;;;26.57;19.03;;;5.70;15.50;;;;;;5065587;28;20644;-60
2020/12/13 01:17:08;;;;;;;29.37;20.10;;;5.80;17.90;;;;;;5069501;28;20211;-60
2020/12/13 01:19:34;;;;;;;27.50;19.73;;;5.70;16.80;;;;;;5067630;28;20189;-60
2020/12/13 01:22:00;;;;;;;29.67;19.30;;;5.70;20.10;;;;;;5069137;28;20306;-60
2020/12/13 01:24:26;;;;;;;34.05;20.90;;;5.80;19.30;;;;;;5070689;28;20193;-60
2020/12/13 01:26:52;;;;;;;32.80;20.00;;;5.80;23.10;;;;;;5065974;28;20191;-61
2020/12/13 01:29:17;;;;;;;31.10;20.40;;;5.80;26.70;;;;;;5067928;28;20193;-60
2020/12/13 01:31:45;;;;;;;28.93;20.03;;;5.80;24.60;;;;;;5062319;28;20228;-60
2020/12/13 01:34:11;;;;;;;30.75;20.02;;;5.80;28.10;;;;;;5067573;28;20182;-60
2020/12/13 01:36:36;;;;;;;32.87;21.43;;;5.80;28.60;;;;;;5065350;28;20180;-59
2020/12/13 01:39:04;;;;;;;34.53;20.90;;;5.80;26.50;;;;;;5057913;28;20185;-60
2020/12/13 01:41:29;;;;;;;33.03;22.63;;;5.80;28.90;;;;;;5059943;28;20276;-57
2020/12/13 01:44:03;;;;;;;36.00;23.50;;;5.80;30.10;;;;;;5065196;28;20185;-60
2020/12/13 01:46:30;;;;;;;35.88;23.42;;;5.80;36.50;;;;;;5066619;28;20219;-60
2020/12/13 01:49:01;;;;;;;33.50;22.20;;;5.80;40.90;;;;;;5063261;28;20578;-60
2020/12/13 01:54:25;;;;;;;33.65;21.63;;;5.80;42.40;;;;;;5069195;28;20662;-60
2020/12/13 01:56:56;;;;;;;35.15;22.85;;;5.80;47.30;;;;;;5056299;28;20220;-61
2020/12/13 01:59:24;;;;;;;34.83;21.67;;;5.80;52.50;;;;;;5056579;28;20284;-59
2020/12/13 02:01:55;;;;;;;32.72;22.15;;;5.80;55.80;;;;;;5063612;28;20180;-60
2020/12/13 02:04:22;;;;;;;32.70;22.25;;;5.80;60.60;;;;;;5073182;28;20188;-59
2020/12/13 02:06:51;;;;;;;36.65;21.98;;;5.70;62.20;;;;;;5064526;28;20193;-60
2020/12/13 02:09:18;;;;;;;32.30;21.35;;;5.70;72.40;;;;;;5070894;28;20196;-60
2020/12/13 02:11:43;;;;;;;37.40;22.42;;;5.60;81.00;;;;;;5070531;28;20705;-60
2020/12/13 02:14:09;;;;;;;32.33;20.27;;;5.60;89.80;;;;;;5059797;28;20215;-60
2020/12/13 02:16:35;;;;;;;36.63;23.53;;;5.60;90.90;;;;;;5067027;28;20617;-59
2020/12/13 02:19:00;;;;;;;33.70;22.17;;;5.50;93.00;;;;;;5063092;28;20208;-59
2020/12/13 02:21:26;;;;;;;35.13;21.70;;;5.60;93.80;;;;;;5067524;28;20248;-55
2020/12/13 02:23:52;;;;;;;36.60;23.40;;;5.60;93.60;;;;;;5055689;28;20326;-60
2020/12/13 02:26:18;;;;;;;34.07;21.23;;;5.50;91.20;;;;;;5057121;28;20190;-59
2020/12/13 02:28:43;;;;;;;35.50;21.80;;;5.50;90.10;;;;;;5067957;28;20189;-59
2020/12/13 02:31:10;;;;;;;36.90;23.60;;;5.50;89.80;;;;;;5055337;28;20231;-58
2020/12/13 02:33:36;;;;;;;35.90;22.20;;;5.50;88.60;;;;;;5057551;28;20468;-59
2020/12/13 02:36:05;;;;;;;33.28;21.88;;;5.50;88.40;;;;;;5059746;28;20332;-59
2020/12/13 02:38:31;;;;;;;33.75;21.70;;;5.60;83.80;;;;;;5052868;28;20652;-60
2020/12/13 02:41:01;;;;;;;36.03;22.43;;;5.60;79.00;;;;;;5058542;28;20224;-60
2020/12/13 02:43:28;;;;;;;33.55;22.25;;;5.60;71.60;;;;;;5068381;28;20431;-61
2020/12/13 02:45:53;;;;;;;31.73;21.00;;;5.60;67.80;;;;;;5064286;28;20643;-61
2020/12/13 02:48:20;;;;;;;33.60;22.27;;;5.60;63.80;;;;;;5068638;28;20250;-60
2020/12/13 02:50:45;;;;;;;34.63;22.55;;;5.60;59.80;;;;;;5068349;28;20189;-60
2020/12/13 02:53:11;;;;;;;31.87;21.60;;;5.60;57.90;;;;;;5064405;28;20283;-60
2020/12/13 02:55:37;;;;;;;31.30;21.03;;;5.70;56.60;;;;;;5065410;28;20196;-58
2020/12/13 02:58:02;;;;;;;33.50;21.07;;;5.70;54.70;;;;;;5065902;28;20598;-60
2020/12/13 03:00:28;;;;;;;28.90;19.97;;;5.70;50.10;;;;;;5063043;28;20196;-60
2020/12/13 03:02:53;;;;;;;35.37;21.97;;;5.80;47.60;;;;;;5064636;28;20192;-56
2020/12/13 03:05:19;;;;;;;31.70;20.47;;;5.70;44.70;;;;;;5066709;28;20193;-60
2020/12/13 03:07:45;;;;;;;29.87;20.40;;;5.80;40.70;;;;;;5064701;28;20550;-60
2020/12/13 03:10:10;;;;;;;33.80;21.57;;;5.80;36.40;;;;;;5054066;28;20221;-59
2020/12/13 03:12:36;;;;;;;31.73;20.07;;;5.80;33.10;;;;;;5061851;28;20214;-60
2020/12/13 03:15:02;;;;;;;34.77;22.47;;;5.80;32.90;;;;;;5060014;28;20196;-60
2020/12/13 03:17:27;;;;;;;34.00;21.97;;;5.80;29.90;;;;;;5063305;28;20228;-60
2020/12/13 03:19:53;;;;;;;32.77;21.03;;;5.80;28.20;;;;;;5058060;28;20257;-60
2020/12/13 03:22:19;;;;;;;35.53;21.57;;;5.90;26.40;;;;;;5066877;28;20312;-60
2020/12/13 03:24:44;;;;;;;35.83;23.20;;;5.90;26.30;;;;;;5060995;28;20664;-60
2020/12/13 03:27:10;;;;;;;32.70;22.17;;;5.90;20.70;;;;;;5061615;28;20390;-60
2020/12/13 03:29:35;;;;;;;31.63;22.23;;;5.90;17.60;;;;;;5064131;28;20280;-60
2020/12/13 03:32:01;;;;;;;33.90;21.53;;;6.00;17.80;;;;;;5064945;28;20544;-59
2020/12/13 03:34:27;;;;;;;33.10;22.00;;;6.00;14.80;;;;;;5065058;28;20230;-60
2020/12/13 03:36:52;;;;;;;31.83;20.30;;;6.00;10.80;;;;;;5065556;28;20182;-59
2020/12/13 03:39:18;;;;;;;33.07;21.10;;;6.00;3.10;;;;;;5063461;28;20181;-61
2020/12/13 03:41:43;;;;;;;35.13;21.10;;;6.00;1.90;;;;;;5060361;28;20222;-60
2020/12/13 03:44:12;;;;;;;33.77;22.90;;;6.00;1.00;;;;;;5072015;28;20228;-59
2020/12/13 03:46:39;;;;;;;34.72;21.88;;;6.00;1.00;;;;;;5063199;28;20230;-59
2020/12/13 03:49:05;;;;;;;36.22;21.77;;;6.00;1.00;;;;;;5064241;28;20627;-59
2020/12/13 03:51:30;;;;;;;31.23;22.00;;;6.00;1.00;;;;;;5072098;28;20197;-61
2020/12/13 03:53:56;;;;;;;32.57;20.90;;;6.00;1.00;;;;;;5063201;28;20276;-60
2020/12/13 03:56:21;;;;;;;34.33;22.13;;;6.00;1.00;;;;;;5062544;28;20181;-60
2020/12/13 03:58:47;;;;;;;36.10;23.07;;;5.90;1.00;;;;;;5066052;28;20178;-60
2020/12/13 04:01:13;;;;;;;33.97;22.27;;;5.90;1.00;;;;;;5070717;28;20628;-60
2020/12/13 04:03:38;;;;;;;34.73;22.57;;;5.90;1.00;;;;;;5071483;28;20183;-60
2020/12/13 04:06:04;;;;;;;32.43;21.13;;;5.90;1.00;;;;;;5067650;28;20204;-60
2020/12/13 04:08:29;;;;;;;37.50;23.10;;;6.00;1.00;;;;;;5061556;28;20857;-59
2020/12/13 04:10:55;;;;;;;32.17;22.00;;;6.00;1.00;;;;;;5069382;28;20185;-59
2020/12/13 04:13:21;;;;;;;30.63;20.17;;;6.00;1.00;;;;;;5056081;28;20206;-60
2020/12/13 04:15:46;;;;;;;28.30;20.93;;;6.00;1.00;;;;;;5062257;28;20201;-60
2020/12/13 04:18:12;;;;;;;31.33;20.13;;;6.00;1.00;;;;;;5069986;28;20201;-60
2020/12/13 04:20:37;;;;;;;33.87;22.23;;;6.10;1.00;;;;;;5068155;28;20644;-57
2020/12/13 04:23:03;;;;;;;29.40;20.73;;;6.00;1.00;;;;;;5070757;28;20248;-60
2020/12/13 04:25:29;;;;;;;35.60;22.13;;;6.10;1.00;;;;;;5071725;28;20205;-60
2020/12/13 04:27:54;;;;;;;38.70;22.73;;;6.10;1.00;;;;;;5069793;28;20256;-59
2020/12/13 04:30:20;;;;;;;33.53;22.47;;;6.00;1.00;;;;;;5061127;28;20243;-60
2020/12/13 04:32:45;;;;;;;32.97;21.03;;;6.00;1.00;;;;;;5063491;28;20256;-60
2020/12/13 04:35:11;;;;;;;35.73;22.40;;;6.00;1.00;;;;;;5061780;28;20498;-59
2020/12/13 04:37:37;;;;;;;33.93;21.93;;;6.00;1.00;;;;;;5058876;28;20197;-59
2020/12/13 04:40:05;;;;;;;34.00;21.70;;;6.10;1.00;;;;;;5062029;28;20217;-60
2020/12/13 04:42:35;;;;;;;34.67;22.30;;;6.10;1.00;;;;;;5067987;28;20227;-58
2020/12/13 04:45:03;;;;;;;33.80;21.55;;;6.10;1.00;;;;;;5064860;28;20237;-58
2020/12/13 04:47:32;;;;;;;31.73;21.23;;;6.10;1.00;;;;;;5051742;28;20655;-59
2020/12/13 04:50:02;;;;;;;33.47;22.02;;;6.10;1.00;;;;;;5066039;28;20547;-60
2020/12/13 04:52:28;;;;;;;35.88;21.80;;;6.10;1.00;;;;;;5070464;28;20200;-61
2020/12/13 04:54:54;;;;;;;33.07;22.20;;;6.00;1.00;;;;;;5059138;28;20182;-60
2020/12/13 04:57:20;;;;;;;32.57;21.97;;;6.10;1.00;;;;;;5065110;28;20506;-60
2020/12/13 04:59:47;;;;;;;36.63;24.20;;;6.10;1.00;;;;;;5065749;28;20188;-60
2020/12/13 05:02:13;;;;;;;32.40;22.25;;;6.10;1.00;;;;;;5066000;28;20334;-60
2020/12/13 05:04:40;;;;;;;28.77;21.80;;;6.10;1.00;;;;;;5056410;28;20193;-60
2020/12/13 05:07:06;;;;;;;32.30;21.02;;;6.10;1.00;;;;;;5066285;28;20190;-57
2020/12/13 05:09:32;;;;;;;34.58;23.52;;;6.10;1.00;;;;;;5063625;28;20533;-59
2020/12/13 05:11:57;;;;;;;33.73;22.67;;;6.10;1.00;;;;;;5067464;28;20181;-60
2020/12/13 05:14:23;;;;;;;33.47;21.47;;;6.10;1.00;;;;;;5064531;28;20212;-58
2020/12/13 05:16:49;;;;;;;33.00;22.37;;;6.10;1.00;;;;;;5068682;28;20427;-60
2020/12/13 05:19:14;;;;;;;31.97;21.40;;;6.10;1.00;;;;;;5065783;28;20178;-57
2020/12/13 05:21:42;;;;;;;30.57;21.30;;;6.20;1.00;;;;;;5066199;28;20190;-59
2020/12/13 05:24:07;;;;;;;33.10;21.80;;;6.10;1.00;;;;;;5065797;28;20186;-58
2020/12/13 05:26:33;;;;;;;34.83;21.33;;;6.10;1.00;;;;;;5068446;28;20190;-60
2020/12/13 05:29:03;;;;;;;33.58;22.25;;;6.10;1.00;;;;;;5064313;28;21020;-60
2020/12/13 05:31:30;;;;;;;32.58;23.30;;;6.20;1.00;;;;;;5068395;28;20190;-60
2020/12/13 05:36:26;;;;;;;29.42;20.27;;;6.20;1.00;;;;;;5059288;28;20185;-60
2020/12/13 05:38:56;;;;;;;34.88;22.67;;;6.10;1.00;;;;;;5067967;28;20178;-60
2020/12/13 05:41:31;;;;;;;31.75;22.17;;;6.20;1.00;;;;;;5069840;28;20223;-58
2020/12/13 05:44:06;;;;;;;31.77;21.70;;;6.10;1.00;;;;;;5061775;28;20672;-60
2020/12/13 05:52:21;;;;;;;29.52;21.60;;;6.10;1.00;;;;;;5061877;28;20604;-60
2020/12/13 05:54:47;;;;;;;31.73;21.20;;;6.10;1.00;;;;;;5063363;28;20259;-60
2020/12/13 05:57:13;;;;;;;32.03;22.33;;;6.10;1.00;;;;;;5069688;28;20280;-59
2020/12/13 05:59:39;;;;;;;29.70;20.40;;;6.10;1.00;;;;;;5061024;28;21055;-59
2020/12/13 06:02:10;;;;;;;30.13;20.67;;;6.10;1.00;;;;;;5066073;28;20189;-60
2020/12/13 06:04:41;;;;;;;32.35;21.40;;;6.10;1.00;;;;;;5052529;28;20240;-59
2020/12/13 06:07:10;;;;;;;36.40;21.80;;;6.10;1.00;;;;;;5062480;28;20585;-60
2020/12/13 06:09:38;;;;;;;31.42;20.05;;;6.10;1.00;;;;;;5062608;28;20186;-59
2020/12/13 06:12:06;;;;;;;31.65;22.08;;;6.10;1.00;;;;;;5064042;28;20202;-60
2020/12/13 06:14:33;;;;;;;32.28;21.08;;;6.10;1.00;;;;;;5051333;28;20213;-59
2020/12/13 06:17:01;;;;;;;29.42;20.85;;;6.10;1.00;;;;;;5064865;28;20185;-59
2020/12/13 06:19:29;;;;;;;27.00;19.77;;;6.10;1.00;;;;;;5064944;28;20182;-59
2020/12/13 06:21:59;;;;;;;30.20;20.85;;;6.00;1.00;;;;;;5068547;28;20189;-59
2020/12/13 06:24:25;;;;;;;29.42;21.15;;;6.10;1.00;;;;;;5068232;28;20185;-59
2020/12/13 06:26:51;;;;;;;31.45;21.65;;;6.10;1.00;;;;;;5053730;28;20656;-59
2020/12/13 06:29:22;;;;;;;29.65;20.75;;;6.10;1.00;;;;;;5050231;28;20204;-59
2020/12/13 06:31:48;;;;;;;31.08;20.88;;;6.20;1.00;;;;;;5066587;28;20181;-59
2020/12/13 06:34:14;;;;;;;27.63;18.98;;;6.20;1.00;;;;;;5065451;28;20547;-59
2020/12/13 06:36:40;;;;;;;28.93;20.90;;;6.20;1.00;;;;;;5066791;28;20425;-59
2020/12/13 06:39:12;;;;;;;29.30;18.97;;;6.20;1.00;;;;;;5058005;28;20440;-59
2020/12/13 06:41:40;;;;;;;30.83;21.23;;;6.20;1.00;;;;;;5052559;28;20468;-60
2020/12/13 06:44:06;;;;;;;28.65;19.02;;;6.20;1.00;;;;;;5069168;28;20627;-59
2020/12/13 06:46:38;;;;;;;28.60;20.58;;;6.20;1.00;;;;;;5068645;28;20185;-60
2020/12/13 06:49:04;;;;;;;27.67;19.65;;;6.20;1.00;;;;;;5067377;28;20189;-60
2020/12/13 06:51:31;;;;;;;30.95;20.23;;;6.20;1.00;;;;;;5068431;28;20186;-61
2020/12/13 06:53:58;;;;;;;31.05;19.90;;;6.20;1.00;;;;;;5065563;28;20237;-59
2020/12/13 06:56:24;;;;;;;27.90;19.52;;;6.20;1.00;;;;;;5068274;28;20181;-59
2020/12/13 06:59:01;;;;;;;29.88;20.05;;;6.20;1.00;;;;;;5055813;28;20185;-60
2020/12/13 07:01:28;;;;;;;33.38;21.42;;;6.20;1.00;;;;;;5055730;28;20657;-60
2020/12/13 07:03:54;;;;;;;28.45;20.05;;;6.20;1.00;;;;;;5051127;28;20196;-54
2020/12/13 07:06:23;;;;;;;27.02;19.15;;;6.20;1.00;;;;;;5058888;28;20240;-55
2020/12/13 07:08:56;;;;;;;27.80;20.90;;;6.20;1.00;;;;;;5056198;28;20189;-56
2020/12/13 07:11:24;;;;;;;27.45;19.70;;;6.20;1.00;;;;;;5067644;28;20247;-53
2020/12/13 07:13:51;;;;;;;29.80;19.55;;;6.30;1.00;;;;;;5060202;28;20217;-53
2020/12/13 07:16:29;;;;;;;28.00;20.05;;;6.30;1.00;;;;;;5042124;28;20233;-55
2020/12/13 07:19:09;;;;;;;29.15;20.65;;;6.30;1.00;;;;;;5049154;28;20660;-57
2020/12/13 07:21:36;;;;;;;26.33;19.73;;;6.30;1.00;;;;;;5054279;28;20227;-54
2020/12/13 07:24:03;;;;;;;31.35;19.70;;;6.30;1.00;;;;;;5059762;28;20668;-56
2020/12/13 07:26:31;;;;;;;30.27;19.77;;;6.30;1.00;;;;;;5054707;28;20201;-54
2020/12/13 07:28:58;;;;;;;27.95;19.80;;;6.30;1.00;;;;;;5062684;28;20656;-54
2020/12/13 07:31:26;;;;;;;29.65;20.23;;;6.40;1.00;;;;;;5050526;28;20640;-52
2020/12/13 07:33:52;;;;;;;29.45;21.00;;;6.30;1.00;;;;;;5051933;28;20210;-56
2020/12/13 07:36:19;;;;;;;27.63;19.88;;;6.30;1.00;;;;;;5051559;28;20263;-57
2020/12/13 07:38:44;;;;;;;29.38;20.40;;;6.30;1.00;;;;;;5049579;28;20197;-53
2020/12/13 07:41:28;;;;;;;32.10;20.97;;;6.30;1.00;;;;;;5047337;28;20233;-55
2020/12/13 07:43:58;;;;;;;29.20;20.60;;;6.40;1.00;;;;;;5055516;28;20198;-55
2020/12/13 07:46:25;;;;;;;28.27;19.65;;;6.40;1.00;;;;;;5036832;28;20754;-57
2020/12/13 07:49:06;;;;;;;26.58;20.27;;;6.40;1.00;;;;;;5045978;28;20212;-54
2020/12/13 07:51:34;;;;;;;29.27;20.63;;;6.30;1.00;;;;;;5041197;28;20185;-55
2020/12/13 07:54:17;;;;;;;27.02;20.65;;;6.30;1.00;;;;;;5047989;28;20199;-52
2020/12/13 07:56:44;;;;;;;29.45;19.70;;;6.20;1.00;;;;;;5047588;28;20201;-56
2020/12/13 07:59:18;;;;;;;29.15;20.23;;;6.20;1.00;;;;;;5055567;28;20630;-57
2020/12/13 08:01:46;;;;;;;27.48;19.40;;;6.20;1.00;;;;;;5053161;28;20186;-56
2020/12/13 08:04:13;;;;;;;28.80;21.20;;;6.20;1.00;;;;;;5056337;28;20267;-58
2020/12/13 08:06:39;;;;;;;27.42;19.50;;;6.20;1.00;;;;;;5062530;28;20192;-56
2020/12/13 08:09:09;;;;;;;30.00;20.50;;;6.20;1.00;;;;;;5074402;28;20685;-56
2020/12/13 08:11:35;;;;;;;26.70;20.08;;;6.20;1.00;;;;;;5065719;28;20432;-54
2020/12/13 08:14:03;;;;;;;29.50;20.57;;;6.20;1.00;;;;;;5057149;28;20257;-61
2020/12/13 08:16:28;;;;;;;28.60;20.35;;;6.30;1.00;;;;;;5069552;28;20492;-62
2020/12/13 08:19:03;;;;;;;31.90;20.20;;;6.30;1.00;;;;;;5074308;28;20652;-56
2020/12/13 08:21:45;;;;;;;28.80;20.35;;;6.40;1.00;;;;;;5054231;28;20181;-56
2020/12/13 08:24:15;;;;;;;29.27;21.40;;;6.50;1.00;;;;;;5068933;28;20205;-60
2020/12/13 08:26:43;;;;;;;29.90;19.95;;;6.60;1.00;;;;;;5068585;28;20190;-60
2020/12/13 08:29:09;;;;;;;26.60;19.77;;;6.60;1.00;;;;;;5067755;28;20215;-61
2020/12/13 08:31:36;;;;;;;29.00;20.75;;;6.60;1.00;;;;;;5068274;28;20640;-56
2020/12/13 08:34:03;;;;;;;31.70;20.75;;;6.70;1.00;;;;;;5065435;28;20236;-56
2020/12/13 08:36:30;;;;;;;31.95;22.27;;;6.70;1.00;;;;;;5069688;28;20264;-56
2020/12/13 08:39:10;;;;;;;29.17;20.70;;;6.50;1.00;;;;;;5073528;28;20214;-56
2020/12/13 08:41:55;;;;;;;32.05;21.45;;;6.50;1.00;;;;;;5060818;28;20584;-56
2020/12/13 08:44:34;;;;;;;27.90;20.23;;;6.50;1.00;;;;;;5059472;28;20232;-53
2020/12/13 08:47:06;;;;;;;32.17;21.00;;;6.50;1.00;;;;;;5067676;28;20193;-56
2020/12/13 08:49:36;;;;;;;31.25;20.40;;;6.50;1.00;;;;;;5058655;28;20195;-56
2020/12/13 08:52:16;;;;;;;32.58;21.58;;;6.50;1.00;;;;;;5068239;28;20191;-52
2020/12/13 08:54:45;;;;;;;29.92;20.58;;;6.60;1.00;;;;;;5063171;28;20199;-54
2020/12/13 08:57:10;;;;;;;31.20;21.40;;;6.70;1.00;;;;;;5068451;28;20238;-54
2020/12/13 08:59:36;;;;;;;30.97;21.30;;;6.70;1.00;;;;;;5070281;28;20196;-55
2020/12/13 09:02:03;;;;;;;30.90;21.00;;;6.70;1.00;;;;;;5067826;28;20181;-53
2020/12/13 09:04:31;;;;;;;34.85;22.35;;;6.70;1.00;;;;;;5067849;28;20189;-52
2020/12/13 09:07:01;;;;;;;31.77;21.83;;;6.70;1.00;;;;;;5066075;28;20658;-53
2020/12/13 09:09:31;;;;;;;30.33;21.02;;;6.60;1.00;;;;;;5070212;28;20185;-54
2020/12/13 09:11:58;;;;;;;28.35;20.33;;;6.70;1.00;;;;;;5065839;28;20185;-54
2020/12/13 09:14:34;;;;;;;32.28;20.67;;;6.70;1.00;;;;;;5068362;28;20201;-56
2020/12/13 09:17:00;;;;;;;33.47;21.98;;;6.80;1.00;;;;;;5066643;28;20204;-55
2020/12/13 09:19:27;;;;;;;28.63;20.58;;;6.80;1.00;;;;;;5069379;28;20178;-55
2020/12/13 09:21:58;;;;;;;28.83;19.63;;;6.80;1.00;;;;;;5067946;28;20640;-54
2020/12/13 09:24:29;;;;;;;33.83;21.98;;;6.90;1.00;;;;;;5065585;28;20206;-54
2020/12/13 09:27:09;;;;;;;30.45;19.92;;;6.90;1.00;;;;;;5068163;28;20193;-58
2020/12/13 09:29:36;;;;;;;29.70;20.40;;;7.00;1.00;;;;;;5064953;28;20171;-55
2020/12/13 09:32:03;;;;;;;30.75;20.77;;;7.00;1.00;;;;;;5063874;28;20175;-54
2020/12/13 09:34:29;;;;;;;31.67;21.80;;;7.00;1.00;;;;;;5069028;28;20250;-52
2020/12/13 09:36:55;;;;;;;28.93;20.67;;;7.10;1.00;;;;;;5060493;28;20174;-55
2020/12/13 09:39:21;;;;;;;28.70;19.33;;;7.20;1.00;;;;;;5065319;28;20783;-57
2020/12/13 09:41:47;;;;;;;29.63;20.23;;;7.20;1.00;;;;;;5068340;28;20225;-57
2020/12/13 09:44:13;;;;;;;28.40;19.93;;;7.30;1.00;;;;;;5068684;28;20190;-57
2020/12/13 09:46:39;;;;;;;31.38;22.27;;;7.40;1.00;;;;;;5065886;28;20434;-55
2020/12/13 09:49:05;;;;;;;26.00;20.73;;;7.50;1.00;;;;;;5068640;28;20282;-56
2020/12/13 09:51:30;;;;;;;26.50;20.23;;;7.60;1.00;;;;;;5068092;28;20437;-57
2020/12/13 09:53:56;;;;;;;28.30;19.77;;;7.60;1.00;;;;;;5069141;28;20970;-57
2020/12/13 09:56:21;;;;;;;29.50;21.20;;;7.60;1.00;;;;;;5064883;28;20195;-56
2020/12/13 09:58:47;;;;;;;30.77;21.60;;;7.70;1.00;;;;;;5065948;28;20250;-57
2020/12/13 10:01:14;;;;;;;27.63;19.77;;;7.60;1.00;;;;;;5067872;28;20230;-55
2020/12/13 10:03:48;;;;;;;27.67;19.80;;;7.60;1.00;;;;;;5068575;28;20453;-54
2020/12/13 10:09:10;;;;;;;27.13;18.87;;;7.80;1.00;;;;;;5069171;28;20430;-56
2020/12/13 10:11:38;;;;;;;28.73;21.98;;;7.80;1.00;;;;;;5066119;28;20426;-58
2020/12/13 10:14:06;;;;;;;26.20;19.87;;;7.90;1.00;;;;;;5068218;28;20192;-55
2020/12/13 10:16:33;;;;;;;25.40;19.47;;;8.10;1.00;;;;;;5069875;28;20444;-58
2020/12/13 10:18:58;;;;;;;27.23;19.30;;;8.10;1.00;;;;;;5066820;28;20441;-53
2020/12/13 10:21:29;;;;;;;27.30;19.60;;;8.20;1.00;;;;;;5068104;28;20418;-55
2020/12/13 10:23:56;;;;;;;24.90;18.37;;;8.20;1.00;;;;;;5067643;28;20205;-59
2020/12/13 10:26:26;;;;;;;25.20;19.53;;;8.20;1.00;;;;;;5072822;28;20438;-59
2020/12/13 10:28:53;;;;;;;28.07;19.80;;;8.10;1.00;;;;;;5069732;28;21968;-60
2020/12/13 10:31:19;;;;;;;26.57;19.80;;;8.20;1.00;;;;;;5063593;28;20431;-55
2020/12/13 10:33:45;;;;;;;27.00;19.43;;;8.20;1.00;;;;;;5060380;28;20473;-59
2020/12/13 10:36:13;;;;;;;25.20;18.73;;;8.10;1.00;;;;;;5059311;28;20199;-57
2020/12/13 10:38:39;;;;;;;24.37;17.90;;;8.10;1.00;;;;;;5067598;28;20414;-58
2020/12/13 10:41:07;;;;;;;20.70;17.07;;;8.10;1.00;;;;;;5065362;28;20466;-59
2020/12/13 10:43:33;;;;;;;25.07;19.30;;;8.10;1.00;;;;;;5060239;28;20422;-58
2020/12/13 10:45:58;;;;;;;25.40;18.40;;;8.00;1.00;;;;;;5062615;28;20473;-56
2020/12/13 10:48:24;;;;;;;24.33;18.70;;;8.10;1.00;;;;;;5066116;28;20194;-57
2020/12/13 10:50:50;;;;;;;27.43;18.90;;;8.10;1.00;;;;;;5066514;28;20195;-60
2020/12/13 10:53:15;;;;;;;27.03;19.03;;;8.10;1.00;;;;;;5057592;28;20200;-59
2020/12/13 10:55:41;;;;;;;25.43;18.90;;;8.00;1.00;;;;;;5060248;28;20195;-57
2020/12/13 10:58:07;;;;;;;27.43;18.87;;;8.00;1.00;;;;;;5067573;28;20184;-61
2020/12/13 11:00:32;;;;;;;27.73;19.27;;;8.00;1.00;;;;;;5063238;28;20184;-60
2020/12/13 11:02:58;;;;;;;27.83;19.37;;;8.00;1.00;;;;;;5067962;28;20215;-62
2020/12/13 11:05:23;;;;;;;26.70;19.20;;;8.10;1.00;;;;;;5061389;28;20238;-61
2020/12/13 11:07:49;;;;;;;28.30;18.93;;;8.10;1.00;;;;;;5063759;28;20750;-60
2020/12/13 11:10:15;;;;;;;27.20;19.17;;;8.00;1.00;;;;;;5067531;28;20179;-60
2020/12/13 11:12:42;;;;;;;26.23;20.00;;;8.00;1.00;;;;;;5067514;28;20896;-58
2020/12/13 11:15:07;;;;;;;27.47;18.30;;;8.10;1.00;;;;;;5062496;28;20425;-61
2020/12/13 11:17:35;;;;;;;27.60;19.50;;;8.10;1.00;;;;;;5058426;28;20912;-60
2020/12/13 11:20:01;;;;;;;28.23;20.67;;;8.20;1.00;;;;;;5057780;28;20192;-61
2020/12/13 11:22:26;;;;;;;27.43;20.57;;;8.10;1.00;;;;;;5068159;28;20433;-59
2020/12/13 11:24:52;;;;;;;28.93;20.13;;;8.00;1.00;;;;;;5062230;28;20899;-56
2020/12/13 11:27:18;;;;;;;32.43;19.83;;;8.00;1.00;;;;;;5070633;28;20251;-61
2020/12/13 11:29:43;;;;;;;27.67;19.93;;;8.00;1.00;;;;;;5066897;28;20539;-61
2020/12/13 11:32:09;;;;;;;30.13;21.37;;;8.10;1.00;;;;;;5059302;28;20196;-63
2020/12/13 11:34:34;;;;;;;27.17;19.63;;;8.10;1.00;;;;;;5056964;28;20676;-61
2020/12/13 11:37:06;;;;;;;28.33;19.03;;;8.10;1.00;;;;;;5065926;28;20291;-60
2020/12/13 11:39:33;;;;;;;28.23;20.33;;;8.10;1.00;;;;;;5061600;28;20177;-59
2020/12/13 11:42:00;;;;;;;30.40;20.90;;;8.10;1.00;;;;;;5064190;28;20469;-60
2020/12/13 11:44:26;;;;;;;29.83;20.10;;;8.10;1.00;;;;;;5066524;28;20737;-59
2020/12/13 11:46:52;;;;;;;29.90;20.43;;;8.10;1.00;;;;;;5066033;28;20442;-60
2020/12/13 11:49:18;;;;;;;27.47;20.77;;;8.10;1.00;;;;;;5064823;28;20442;-58
2020/12/13 11:51:44;;;;;;;34.30;20.80;;;8.10;1.00;;;;;;5062986;28;20871;-59
2020/12/13 11:54:10;;;;;;;31.73;21.27;;;8.10;1.00;;;;;;5065457;28;21031;-61
2020/12/13 11:56:36;;;;;;;34.27;21.87;;;8.00;1.00;;;;;;5066205;28;20176;-58
2020/12/13 11:59:02;;;;;;;27.90;20.30;;;7.90;1.00;;;;;;5063724;28;20449;-58
2020/12/13 12:01:28;;;;;;;28.50;21.00;;;8.00;1.00;;;;;;5065957;28;20631;-61
2020/12/13 12:03:53;;;;;;;31.53;20.23;;;7.90;1.00;;;;;;5065836;28;20442;-59
2020/12/13 12:06:19;;;;;;;29.30;20.80;;;8.00;1.00;;;;;;5067885;28;20670;-61
2020/12/13 12:08:45;;;;;;;29.40;20.40;;;8.00;1.00;;;;;;5065339;28;20206;-51
2020/12/13 12:11:17;;;;;;;31.23;21.00;;;8.10;1.00;;;;;;5068955;28;20214;-54
2020/12/13 12:13:44;;;;;;;29.90;20.70;;;8.10;1.00;;;;;;5068175;28;20474;-54
2020/12/13 12:16:10;;;;;;;31.83;21.20;;;8.10;1.00;;;;;;5069248;28;22151;-58
2020/12/13 12:18:36;;;;;;;27.63;19.70;;;8.00;1.00;;;;;;5067730;28;20441;-55
2020/12/13 12:21:11;;;;;;;28.20;20.73;;;8.00;1.00;;;;;;5068344;28;20184;-60
2020/12/13 12:23:37;;;;;;;29.67;21.77;;;8.00;1.00;;;;;;5061235;28;20489;-54
2020/12/13 12:26:02;;;;;;;30.27;20.17;;;8.10;1.00;;;;;;5067133;28;20442;-52
2020/12/13 12:28:28;;;;;;;28.23;20.33;;;8.10;1.00;;;;;;5068845;28;20191;-56
2020/12/13 12:30:53;;;;;;;32.90;21.77;;;8.10;1.00;;;;;;5068526;28;20183;-56
2020/12/13 12:33:19;;;;;;;30.30;22.00;;;8.10;1.00;;;;;;5069739;28;20701;-56
2020/12/13 12:35:44;;;;;;;31.30;21.00;;;8.10;1.00;;;;;;5069328;28;20234;-56
2020/12/13 12:38:11;;;;;;;30.87;20.53;;;8.10;1.00;;;;;;5064883;28;20184;-53
2020/12/13 12:40:37;;;;;;;30.57;20.93;;;8.10;1.00;;;;;;5065945;28;20238;-55
2020/12/13 12:43:03;;;;;;;28.03;19.90;;;8.20;1.00;;;;;;5069765;28;20798;-60
2020/12/13 12:45:29;;;;;;;28.47;20.30;;;8.20;1.00;;;;;;5065973;28;20963;-53
2020/12/13 12:47:54;;;;;;;30.30;20.30;;;8.20;1.00;;;;;;5066923;28;20421;-58
2020/12/13 12:50:20;;;;;;;28.57;19.13;;;8.20;1.00;;;;;;5069288;28;20180;-55
2020/12/13 12:52:46;;;;;;;28.93;20.77;;;8.20;1.00;;;;;;5063341;28;20721;-60
2020/12/13 12:55:12;;;;;;;30.53;19.90;;;8.20;1.00;;;;;;5068981;28;20532;-56
2020/12/13 12:57:37;;;;;;;28.43;20.83;;;8.20;1.00;;;;;;5070226;28;20181;-57
2020/12/13 13:02:32;;;;;;;29.27;19.07;;;8.20;1.00;;;;;;5069048;28;20199;-61